Time;durP1;ratioP1;P1;durP2;ratioP2;P2;SDS_P1;SDS_P2;PMS_P1;PMS_P2;Temp;Humidity;BMP_temperature;BMP_pressure;BME280_temperature;BME280_humidity;BME280_pressure;Samples;Min_cycle;Max_cycle;Signal;HPM_P1;HPM_P2
2023/10/02 00:01:06;;;;;;;17.13;7.15;;;;;;;10.86;100.00;94704.81;5032597;28;20559;-59
2023/10/02 00:03:39;;;;;;;16.48;6.55;;;;;;;10.81;100.00;94707.22;5031129;28;20682;-59
2023/10/02 00:06:09;;;;;;;17.47;7.23;;;;;;;10.82;100.00;94700.53;5031627;28;20041;-58
2023/10/02 00:08:57;;;;;;;15.20;6.72;;;;;;;10.80;100.00;94703.66;5032118;28;20534;-59
2023/10/02 00:11:36;;;;;;;182.23;83.10;;;;;;;10.78;100.00;94706.03;5030239;28;20992;-58
2023/10/02 00:14:18;;;;;;;31.90;14.32;;;;;;;10.78;100.00;94703.28;5030146;28;20441;-58
2023/10/02 00:19:35;;;;;;;17.13;7.93;;;;;;;10.72;100.00;94696.63;5031003;28;20652;-58
2023/10/02 00:25:10;;;;;;;15.45;6.55;;;;;;;10.65;100.00;94694.69;5031383;28;20061;-58
2023/10/02 00:27:37;;;;;;;15.63;6.43;;;;;;;10.60;100.00;94697.84;5031608;28;20057;-59
2023/10/02 00:30:07;;;;;;;14.77;6.32;;;;;;;10.57;100.00;94696.69;5029170;28;20050;-59
2023/10/02 00:32:40;;;;;;;16.83;7.00;;;;;;;10.57;100.00;94696.69;5031533;28;20469;-58
2023/10/02 00:35:11;;;;;;;33.60;18.08;;;;;;;10.52;100.00;94693.56;5030990;28;20057;-58
2023/10/02 00:37:52;;;;;;;20.65;10.13;;;;;;;10.50;100.00;94693.16;5031772;28;20049;-59
2023/10/02 00:40:23;;;;;;;16.30;6.93;;;;;;;10.48;100.00;94690.81;5024082;28;20852;-59
2023/10/02 00:42:55;;;;;;;16.17;6.95;;;;;;;10.43;100.00;94693.97;5025518;28;20049;-58
2023/10/02 00:45:23;;;;;;;15.60;6.63;;;;;;;10.38;100.00;94689.69;5030895;28;20624;-58
2023/10/02 00:47:53;;;;;;;13.60;6.35;;;;;;;10.39;100.00;94693.19;5030673;28;20052;-58
2023/10/02 00:50:24;;;;;;;16.45;7.85;;;;;;;10.35;100.00;94689.69;5031374;28;20456;-58
2023/10/02 00:52:50;;;;;;;16.58;7.97;;;;;;;10.31;100.00;94688.91;5030597;28;20063;-58
2023/10/02 00:55:22;;;;;;;16.15;7.13;;;;;;;10.28;100.00;94689.66;5031095;28;20037;-58
2023/10/02 00:57:56;;;;;;;16.60;6.80;;;;;;;10.26;100.00;94694.75;5030448;28;20510;-59
2023/10/02 01:00:31;;;;;;;15.63;6.88;;;;;;;10.20;100.00;94692.44;5030450;28;20839;-59
2023/10/02 01:02:59;;;;;;;15.48;6.95;;;;;;;10.17;100.00;94693.19;5030419;28;20413;-58
2023/10/02 01:05:41;;;;;;;15.02;6.28;;;;;;;10.17;100.00;94687.72;5031040;28;20475;-59
2023/10/02 01:08:42;;;;;;;15.93;6.90;;;;;;;10.14;100.00;94701.41;5030258;28;20057;-58
2023/10/02 01:11:13;;;;;;;15.27;6.90;;;;;;;10.13;100.00;94694.38;5030452;28;20107;-58
2023/10/02 01:13:41;;;;;;;16.85;7.00;;;;;;;10.08;100.00;94692.03;5030622;28;20049;-58
2023/10/02 01:16:09;;;;;;;15.00;7.03;;;;;;;10.04;100.00;94694.78;5030346;28;20057;-58
2023/10/02 01:18:37;;;;;;;16.40;6.80;;;;;;;9.98;100.00;94688.16;5030692;28;20421;-58
2023/10/02 01:21:14;;;;;;;14.60;6.75;;;;;;;9.95;100.00;94695.19;5030264;28;20045;-58
2023/10/02 01:24:10;;;;;;;18.30;7.33;;;;;;;9.89;100.00;94687.75;5030572;28;20091;-59
2023/10/02 01:26:42;;;;;;;15.82;6.38;;;;;;;9.89;100.00;94685.00;5029324;28;21370;-58
2023/10/02 01:29:11;;;;;;;17.15;6.57;;;;;;;9.86;100.00;94680.28;5030123;28;20051;-58
2023/10/02 01:31:42;;;;;;;17.20;6.65;;;;;;;9.83;100.00;94698.31;5030104;28;20049;-59
2023/10/02 01:34:13;;;;;;;16.52;6.32;;;;;;;9.84;100.00;94686.19;5030104;28;20049;-59
2023/10/02 01:36:41;;;;;;;15.17;6.83;;;;;;;9.86;100.00;94689.31;5030223;28;20046;-59
2023/10/02 01:39:13;;;;;;;15.27;7.13;;;;;;;9.84;100.00;94683.44;5029876;28;20418;-59
2023/10/02 01:41:41;;;;;;;42.35;19.13;;;;;;;9.83;100.00;94687.34;5030145;28;20045;-58
2023/10/02 01:44:11;;;;;;;24.63;10.27;;;;;;;9.83;100.00;94683.81;5030125;28;20049;-58
2023/10/02 01:46:49;;;;;;;16.60;7.22;;;;;;;9.82;100.00;94676.75;5030257;28;20049;-58
2023/10/02 01:49:27;;;;;;;16.87;7.40;;;;;;;9.77;100.00;94678.72;5029485;28;20033;-59
2023/10/02 01:52:11;;;;;;;15.98;6.68;;;;;;;9.78;100.00;94680.31;5029878;28;20049;-58
2023/10/02 01:54:40;;;;;;;14.45;6.82;;;;;;;9.81;100.00;94673.25;5030106;28;20053;-58
2023/10/02 01:57:07;;;;;;;14.85;6.75;;;;;;;9.76;100.00;94673.66;5029472;28;20051;-58
2023/10/02 01:59:34;;;;;;;15.13;6.63;;;;;;;9.69;100.00;94677.16;5029908;28;20389;-59
2023/10/02 02:02:12;;;;;;;14.53;6.50;;;;;;;9.64;100.00;94674.81;5029571;28;20055;-58
2023/10/02 02:04:40;;;;;;;16.48;6.60;;;;;;;9.59;100.00;94677.94;5030224;28;20051;-59
2023/10/02 02:07:08;;;;;;;16.98;7.63;;;;;;;9.55;100.00;94672.44;5029146;28;20067;-58
2023/10/02 02:09:44;;;;;;;16.13;6.70;;;;;;;9.56;100.00;94674.03;5029534;28;20045;-59
2023/10/02 02:12:11;;;;;;;15.77;6.28;;;;;;;9.56;100.00;94679.50;5029677;28;20041;-59
2023/10/02 02:14:51;;;;;;;15.40;6.67;;;;;;;9.55;100.00;94677.94;5044998;28;20052;-58
2023/10/02 02:17:24;;;;;;;16.50;6.93;;;;;;;9.55;100.00;94682.63;5028952;28;20897;-58
2023/10/02 02:20:10;;;;;;;16.55;7.00;;;;;;;9.53;100.00;94680.28;5029324;28;20529;-58
2023/10/02 02:22:37;;;;;;;16.05;6.97;;;;;;;9.39;100.00;94675.56;5029797;28;20110;-58
2023/10/02 02:25:04;;;;;;;16.00;6.78;;;;;;;9.40;100.00;94679.09;5028795;28;20042;-58
2023/10/02 02:27:31;;;;;;;15.47;7.17;;;;;;;9.39;100.00;94675.56;5029348;28;20494;-59
2023/10/02 02:29:58;;;;;;;17.13;7.03;;;;;;;9.39;100.00;94672.03;5027752;28;20072;-58
2023/10/02 02:32:36;;;;;;;16.73;7.07;;;;;;;9.38;100.00;94671.25;5029419;28;20302;-58
2023/10/02 02:35:06;;;;;;;15.95;6.60;;;;;;;9.33;100.00;94677.13;5028632;28;20104;-58
2023/10/02 02:37:33;;;;;;;15.57;6.95;;;;;;;9.30;100.00;94671.66;5029331;28;20051;-58
2023/10/02 02:40:22;;;;;;;14.93;6.43;;;;;;;9.29;100.00;94675.56;5028824;28;20042;-58
2023/10/02 02:42:51;;;;;;;15.15;6.70;;;;;;;9.27;100.00;94678.66;5028149;28;20398;-58
2023/10/02 02:45:28;;;;;;;13.27;6.43;;;;;;;9.25;100.00;94675.53;5028379;28;20695;-58
2023/10/02 02:48:06;;;;;;;15.68;6.50;;;;;;;9.23;100.00;94677.09;5028474;28;20056;-58
2023/10/02 02:50:36;;;;;;;15.48;6.53;;;;;;;9.22;100.00;94670.06;5028147;28;20068;-58
2023/10/02 02:53:17;;;;;;;20.87;9.57;;;;;;;9.14;100.00;94672.00;5028695;28;20056;-58
2023/10/02 02:55:44;;;;;;;15.75;7.22;;;;;;;9.12;100.00;94661.44;5029315;28;20045;-58
2023/10/02 02:58:12;;;;;;;15.00;6.63;;;;;;;9.09;100.00;94661.44;5028377;28;20098;-58
2023/10/02 03:00:39;;;;;;;14.40;6.40;;;;;;;9.06;100.00;94659.47;5021249;28;20117;-58
2023/10/02 03:05:53;;;;;;;16.30;6.40;;;;;;;9.03;100.00;94661.00;5028784;28;20062;-57
2023/10/02 03:08:19;;;;;;;15.23;6.63;;;;;;;9.02;100.00;94653.22;5028721;28;20037;-58
2023/10/02 03:10:46;;;;;;;16.15;7.47;;;;;;;9.00;100.00;94656.31;5029214;28;20046;-59
2023/10/02 03:13:16;;;;;;;15.07;6.70;;;;;;;8.99;100.00;94658.28;5028537;28;20398;-58
2023/10/02 03:15:47;;;;;;;16.70;6.75;;;;;;;8.96;100.00;94653.56;5029251;28;20441;-58
2023/10/02 03:18:30;;;;;;;15.50;6.60;;;;;;;8.96;100.00;94652.78;5028377;28;20502;-58
2023/10/02 03:23:39;;;;;;;16.40;6.70;;;;;;;8.88;100.00;94656.69;5032825;28;20053;-59
2023/10/02 03:27:00;;;;;;;15.10;6.45;;;;;;;8.83;100.00;94649.63;5032265;28;20418;-59
2023/10/02 03:29:16;;;;;;;16.13;6.70;;;;;;;8.87;100.00;94657.84;5026829;28;20049;-59
2023/10/02 03:31:49;;;;;;;16.63;6.90;;;;;;;8.84;100.00;94653.16;5032851;28;20049;-59
2023/10/02 03:34:34;;;;;;;14.27;6.63;;;;;;;8.82;100.00;94655.50;5031756;28;21799;-58
2023/10/02 03:39:59;;;;;;;15.35;6.63;;;;;;;8.78;100.00;94650.00;5032759;28;20410;-58
2023/10/02 03:42:33;;;;;;;16.00;6.82;;;;;;;8.77;100.00;94651.97;5030381;28;20053;-58
2023/10/02 03:45:04;;;;;;;15.77;6.60;;;;;;;8.78;100.00;94655.47;5032192;28;20042;-58
2023/10/02 03:47:33;;;;;;;13.95;6.57;;;;;;;8.75;100.00;94659.78;5032343;28;20064;-58
2023/10/02 03:50:02;;;;;;;16.42;7.00;;;;;;;8.70;100.00;94648.41;5032365;28;20045;-58
2023/10/02 03:52:32;;;;;;;16.13;6.40;;;;;;;8.68;100.00;94658.97;5032273;28;20045;-58
2023/10/02 03:55:14;;;;;;;15.77;6.97;;;;;;;8.67;100.00;94660.13;5032286;28;20406;-58
2023/10/02 03:57:54;;;;;;;14.83;6.30;;;;;;;8.68;100.00;94659.72;5032073;28;20512;-58
2023/10/02 04:02:50;;;;;;;19.40;9.38;;;;;;;8.69;100.00;94646.84;5032306;28;20051;-59
2023/10/02 04:08:37;;;;;;;16.88;6.72;;;;;;;8.56;100.00;94652.66;5031768;28;20041;-58
2023/10/02 04:11:04;;;;;;;17.17;6.60;;;;;;;8.59;100.00;94659.28;5013208;28;20046;-58
2023/10/02 04:13:38;;;;;;;13.27;6.28;;;;;;;8.62;100.00;94657.75;5023107;28;20049;-58
2023/10/02 04:19:02;;;;;;;15.82;6.78;;;;;;;8.59;100.00;94654.63;5030679;28;20057;-57
2023/10/02 04:21:33;;;;;;;16.52;6.78;;;;;;;8.61;100.00;94654.22;5031248;28;20072;-59
2023/10/02 04:24:00;;;;;;;15.30;6.60;;;;;;;8.60;100.00;94653.44;5030746;28;20051;-58
2023/10/02 04:26:33;;;;;;;13.85;6.40;;;;;;;8.60;100.00;94660.88;5031473;28;20042;-58
2023/10/02 04:29:13;;;;;;;17.00;7.28;;;;;;;8.59;100.00;94654.63;5030449;28;20038;-59
2023/10/02 04:31:44;;;;;;;13.27;6.25;;;;;;;8.58;100.00;94655.78;5031114;28;20134;-60
2023/10/02 04:36:51;;;;;;;15.37;6.60;;;;;;;8.60;100.00;94655.41;5031212;28;20057;-60
2023/10/02 04:42:19;;;;;;;14.88;6.53;;;;;;;8.56;100.00;94657.34;5030535;28;20045;-60
2023/10/02 04:44:58;;;;;;;16.10;7.00;;;;;;;8.56;100.00;94651.88;5031119;28;20131;-58
2023/10/02 04:47:27;;;;;;;15.57;6.90;;;;;;;8.50;100.00;94658.88;5029990;28;20059;-59
2023/10/02 04:50:41;;;;;;;12.83;6.80;;;;;;;8.50;100.00;94661.63;5030413;28;20330;-58
2023/10/02 04:55:41;;;;;;;13.88;6.50;;;;;;;8.30;100.00;94655.63;5029246;28;21506;-58
2023/10/02 04:58:14;;;;;;;13.10;6.70;;;;;;;8.25;100.00;94654.03;5029720;28;20060;-58
2023/10/02 05:03:34;;;;;;;15.70;6.87;;;;;;;8.28;100.00;94657.97;5030286;28;20898;-59
2023/10/02 05:06:04;;;;;;;12.82;6.22;;;;;;;8.25;100.00;94650.50;5030253;28;20407;-58
2023/10/02 05:09:12;;;;;;;14.57;6.70;;;;;;;8.22;100.00;94651.28;5031131;28;20421;-59
2023/10/02 05:11:50;;;;;;;13.82;6.55;;;;;;;8.17;100.00;94655.94;5030084;28;20065;-59
2023/10/02 05:14:29;;;;;;;13.95;6.45;;;;;;;8.17;100.00;94650.47;5029184;28;21442;-59
2023/10/02 05:17:17;;;;;;;19.87;7.03;;;;;;;8.20;100.00;94649.69;5030172;28;20054;-59
2023/10/02 05:19:57;;;;;;;12.77;6.35;;;;;;;8.22;100.00;94652.06;5031137;28;20052;-59
2023/10/02 05:22:27;;;;;;;13.15;6.25;;;;;;;8.26;100.00;94650.13;5029644;28;21761;-59
2023/10/02 05:25:04;;;;;;;14.60;6.80;;;;;;;8.28;100.00;94650.53;5030171;28;20037;-59
2023/10/02 05:27:33;;;;;;;14.88;7.00;;;;;;;8.24;100.00;94649.72;5030286;28;20487;-59
2023/10/02 05:30:12;;;;;;;14.27;6.67;;;;;;;8.32;100.00;94653.28;5029830;28;20052;-59
2023/10/02 05:32:41;;;;;;;16.40;6.68;;;;;;;8.32;100.00;94651.34;5030665;28;20045;-59
2023/10/02 05:37:41;;;;;;;13.70;6.28;;;;;;;8.50;100.00;94664.34;5030467;28;20060;-59
2023/10/02 05:45:39;;;;;;;14.35;6.18;;;;;;;8.55;100.00;94670.25;5028425;28;20793;-59
2023/10/02 05:48:14;;;;;;;15.73;7.03;;;;;;;8.68;100.00;94667.16;5029723;28;20063;-59
2023/10/02 05:50:48;;;;;;;14.27;6.78;;;;;;;8.75;100.00;94667.97;5030014;28;20056;-59
2023/10/02 05:53:15;;;;;;;13.30;6.38;;;;;;;8.91;100.00;94672.31;5029831;28;20039;-59
2023/10/02 05:55:56;;;;;;;12.73;6.07;;;;;;;9.04;100.00;94676.28;5029795;28;20049;-59
2023/10/02 05:58:32;;;;;;;14.52;6.00;;;;;;;9.13;100.00;94670.44;5028889;28;21746;-60
2023/10/02 06:01:04;;;;;;;15.25;7.30;;;;;;;9.10;100.00;94673.97;5029326;28;20067;-59
2023/10/02 06:03:35;;;;;;;13.13;6.30;;;;;;;9.10;100.00;94674.72;5029825;28;20064;-59
2023/10/02 06:06:18;;;;;;;14.80;8.07;;;;;;;9.16;100.00;94678.66;5027876;28;20339;-60
2023/10/02 06:08:54;;;;;;;14.17;7.00;;;;;;;9.42;100.00;94679.50;5018712;28;20033;-59
2023/10/02 06:11:25;;;;;;;12.60;6.75;;;;;;;9.58;100.00;94682.66;5029139;28;20650;-59
2023/10/02 06:13:57;;;;;;;12.98;6.30;;;;;;;9.72;100.00;94675.63;5029369;28;20050;-58
2023/10/02 06:16:33;;;;;;;15.15;6.70;;;;;;;9.85;100.00;94673.25;5029285;28;20122;-57
2023/10/02 06:19:03;;;;;;;13.07;6.10;;;;;;;9.96;100.00;94666.59;5029248;28;20115;-57
2023/10/02 06:21:31;;;;;;;13.67;6.87;;;;;;;10.09;100.00;94675.19;5016911;28;20060;-59
2023/10/02 06:23:58;;;;;;;15.10;6.38;;;;;;;10.16;100.00;94677.13;5029201;28;20053;-58
2023/10/02 06:26:29;;;;;;;14.50;6.85;;;;;;;10.16;100.00;94677.94;5029501;28;20051;-59
2023/10/02 06:29:22;;;;;;;14.70;6.95;;;;;;;10.32;100.00;94677.53;5028893;28;20042;-58
2023/10/02 06:31:58;;;;;;;14.38;6.90;;;;;;;10.42;100.00;94673.19;5029678;28;20110;-58
2023/10/02 06:34:36;;;;;;;16.30;7.50;;;;;;;10.35;100.00;94670.47;5028531;28;20891;-58
2023/10/02 06:37:08;;;;;;;15.20;6.90;;;;;;;10.31;100.00;94673.22;5028790;28;20053;-58
2023/10/02 06:39:36;;;;;;;16.42;7.50;;;;;;;9.91;100.00;94677.16;5029540;28;20050;-60
2023/10/02 06:42:07;;;;;;;17.25;7.50;;;;;;;9.97;100.00;94675.59;5028866;28;20038;-58
2023/10/02 06:44:52;;;;;;;16.45;7.72;;;;;;;10.37;100.00;94674.38;5029111;28;20414;-59
2023/10/02 06:47:23;;;;;;;14.67;6.90;;;;;;;10.88;100.00;94676.97;5028435;28;20107;-59
2023/10/02 06:49:51;;;;;;;13.75;6.60;;;;;;;10.91;100.00;94668.72;5029161;28;20048;-59
2023/10/02 06:52:20;;;;;;;14.80;6.68;;;;;;;11.07;100.00;94671.00;5028451;28;20644;-58
2023/10/02 06:54:56;;;;;;;14.57;7.10;;;;;;;11.33;100.00;94680.66;5029119;28;20040;-59
2023/10/02 06:57:26;;;;;;;18.98;8.95;;;;;;;11.44;100.00;94677.06;5027944;28;20045;-58
2023/10/02 06:59:53;;;;;;;16.17;6.90;;;;;;;11.69;100.00;94679.63;5027369;28;20044;-58
2023/10/02 07:02:26;;;;;;;15.27;7.03;;;;;;;11.84;100.00;94681.09;5044280;28;20042;-58
2023/10/02 07:04:56;;;;;;;13.68;7.03;;;;;;;11.99;100.00;94681.78;5028730;28;20041;-58
2023/10/02 07:07:26;;;;;;;16.02;8.00;;;;;;;12.22;100.00;94678.47;5028767;28;20048;-58
2023/10/02 07:09:54;;;;;;;14.93;6.97;;;;;;;12.32;100.00;94685.06;5027229;28;20526;-58
2023/10/02 07:12:27;;;;;;;12.80;6.40;;;;;;;12.80;100.00;94681.41;5028624;28;20491;-59
2023/10/02 07:15:10;;;;;;;16.88;7.20;;;;;;;13.51;100.00;94688.00;5028649;28;20064;-58
2023/10/02 07:17:48;;;;;;;14.25;6.60;;;;;;;15.61;100.00;94678.28;5028601;28;20433;-59
2023/10/02 07:20:20;;;;;;;13.45;6.70;;;;;;;18.50;100.00;94681.03;5027942;28;20736;-60
2023/10/02 07:22:48;;;;;;;16.25;7.05;;;;;;;19.51;100.00;94670.69;5028944;28;20084;-59
2023/10/02 07:25:20;;;;;;;13.20;7.00;;;;;;;20.09;100.00;94665.72;5028593;28;20045;-59
2023/10/02 07:27:48;;;;;;;13.32;7.22;;;;;;;20.56;100.00;94667.38;5029148;28;20483;-59
2023/10/02 07:30:26;;;;;;;14.85;7.22;;;;;;;21.62;94.57;94668.75;5027887;28;20049;-60
2023/10/02 07:33:02;;;;;;;12.25;6.55;;;;;;;22.59;90.07;94671.78;5028334;28;20448;-59
2023/10/02 07:35:30;;;;;;;15.43;7.80;;;;;;;22.02;81.67;94672.53;5028640;28;20506;-60
2023/10/02 07:37:59;;;;;;;13.47;7.60;;;;;;;23.46;79.32;94666.91;5028471;28;20510;-60
2023/10/02 07:40:49;;;;;;;12.02;6.45;;;;;;;25.16;73.19;94658.19;5028647;28;20046;-60
2023/10/02 07:43:18;;;;;;;12.63;6.78;;;;;;;25.58;63.64;94660.44;5027449;28;20670;-60
2023/10/02 07:48:35;;;;;;;12.38;7.03;;;;;;;26.53;61.35;94651.19;5027661;28;20710;-60
2023/10/02 07:51:03;;;;;;;14.33;7.67;;;;;;;26.11;64.85;94659.09;5028380;28;20053;-61
2023/10/02 07:53:39;;;;;;;14.00;7.90;;;;;;;26.93;59.88;94660.66;5028455;28;20049;-60
2023/10/02 07:56:11;;;;;;;14.00;8.02;;;;;;;28.09;55.64;94660.69;5027865;28;20052;-59
2023/10/02 07:58:39;;;;;;;14.45;7.75;;;;;;;29.97;50.33;94661.56;5028390;28;20405;-60
2023/10/02 08:01:11;;;;;;;13.40;7.55;;;;;;;29.67;49.13;94660.19;5028058;28;20041;-60
2023/10/02 08:03:44;;;;;;;13.77;7.63;;;;;;;29.30;49.64;94654.22;5028882;28;20060;-60
2023/10/02 08:06:22;;;;;;;15.18;8.00;;;;;;;30.00;48.80;94657.66;5026234;28;20090;-60
2023/10/02 08:11:41;;;;;;;14.70;8.05;;;;;;;29.84;47.48;94654.44;5030799;28;20445;-60
2023/10/02 08:14:34;;;;;;;15.82;8.48;;;;;;;30.99;47.38;94656.50;5030981;28;20038;-60
2023/10/02 08:16:59;;;;;;;17.90;9.17;;;;;;;32.37;43.36;94654.81;5018932;28;20045;-60
2023/10/02 08:19:26;;;;;;;15.68;9.13;;;;;;;31.95;43.49;94654.44;5031235;28;20049;-60
2023/10/02 08:21:53;;;;;;;15.82;9.02;;;;;;;30.98;44.61;94648.53;5030727;28;20526;-59
2023/10/02 08:24:20;;;;;;;18.85;9.93;;;;;;;30.18;47.63;94657.00;5031240;28;20082;-60
2023/10/02 08:26:47;;;;;;;16.95;9.63;;;;;;;30.14;46.83;94647.25;5031190;28;20053;-60
2023/10/02 08:29:16;;;;;;;17.50;9.87;;;;;;;29.69;48.34;94654.00;5029410;28;20506;-60
2023/10/02 08:31:44;;;;;;;19.85;9.88;;;;;;;29.97;47.60;94651.00;5031137;28;20041;-60
2023/10/02 08:34:12;;;;;;;17.77;9.75;;;;;;;30.23;47.88;94663.91;5030365;28;20057;-60
2023/10/02 08:36:41;;;;;;;17.73;10.05;;;;;;;31.41;45.87;94653.38;5031190;28;20049;-60
2023/10/02 08:39:09;;;;;;;19.23;10.60;;;;;;;29.78;48.87;94650.09;5030652;28;20042;-60
2023/10/02 08:41:46;;;;;;;19.77;10.37;;;;;;;29.83;47.82;94655.72;5030657;28;20053;-60
2023/10/02 08:44:14;;;;;;;20.13;10.40;;;;;;;28.41;52.37;94656.78;5029959;28;20505;-60
2023/10/02 08:46:43;;;;;;;18.15;9.90;;;;;;;29.48;50.72;94645.16;5030891;28;20057;-60
2023/10/02 08:49:13;;;;;;;18.92;10.20;;;;;;;30.40;47.42;94643.97;5030297;28;20057;-60
2023/10/02 08:51:48;;;;;;;19.02;10.40;;;;;;;28.90;49.97;94650.81;5029424;28;20053;-60
2023/10/02 08:54:17;;;;;;;18.93;10.80;;;;;;;29.39;49.02;94646.22;5029178;28;20867;-60
2023/10/02 08:56:44;;;;;;;18.60;9.65;;;;;;;29.15;49.93;94646.09;5030031;28;20045;-58
2023/10/02 08:59:16;;;;;;;20.48;10.70;;;;;;;28.28;51.70;94658.09;5029350;28;20165;-60
2023/10/02 09:01:47;;;;;;;20.60;10.50;;;;;;;28.41;51.96;94649.09;5030511;28;20456;-60
2023/10/02 09:04:22;;;;;;;19.50;10.40;;;;;;;27.77;54.29;94643.22;5029690;28;20049;-60
2023/10/02 09:06:53;;;;;;;21.37;9.93;;;;;;;27.65;55.53;94644.47;5030335;28;20446;-60
2023/10/02 09:09:35;;;;;;;20.30;10.05;;;;;;;27.69;55.98;94647.81;5028838;28;20449;-60
2023/10/02 09:12:03;;;;;;;19.17;10.32;;;;;;;29.43;50.36;94637.47;5029674;28;20048;-60
2023/10/02 09:17:19;;;;;;;21.42;10.90;;;;;;;28.55;51.62;94630.34;5029709;28;20491;-60
2023/10/02 09:19:49;;;;;;;22.13;10.57;;;;;;;28.48;52.93;94645.75;5030090;28;20464;-60
2023/10/02 09:22:17;;;;;;;19.83;10.48;;;;;;;29.07;52.02;94634.53;5027585;28;20658;-60
2023/10/02 09:24:55;;;;;;;22.52;10.82;;;;;;;28.64;52.25;94623.66;5030147;28;20118;-61
2023/10/02 09:27:23;;;;;;;21.08;10.60;;;;;;;28.48;54.46;94625.22;5028856;28;21525;-60
2023/10/02 09:30:15;;;;;;;20.33;10.40;;;;;;;31.02;47.48;94617.81;5030050;28;20519;-61
2023/10/02 09:32:52;;;;;;;19.77;10.07;;;;;;;29.16;50.79;94622.19;5028909;28;20071;-61
2023/10/02 09:35:39;;;;;;;19.83;10.30;;;;;;;29.48;50.54;94620.47;5028960;28;21655;-61
2023/10/02 09:38:31;;;;;;;22.38;10.52;;;;;;;31.72;45.70;94611.47;5028909;28;20045;-62
2023/10/02 09:43:35;;;;;;;21.15;10.75;;;;;;;30.17;46.85;94609.41;5029820;28;20053;-61
2023/10/02 09:46:15;;;;;;;19.43;10.40;;;;;;;32.58;43.26;94603.88;5029576;28;20114;-61
2023/10/02 09:48:56;;;;;;;19.48;10.48;;;;;;;32.80;41.15;94605.47;5029764;28;20033;-61
2023/10/02 09:51:30;;;;;;;23.00;10.07;;;;;;;32.03;41.95;94607.88;5028704;28;20048;-61
2023/10/02 09:54:06;;;;;;;19.63;10.43;;;;;;;31.09;45.25;94602.25;5029262;28;20445;-61
2023/10/02 09:56:51;;;;;;;19.27;10.55;;;;;;;32.04;42.70;94605.81;5029233;28;20057;-61
2023/10/02 09:59:22;;;;;;;18.97;10.60;;;;;;;31.67;45.19;94601.72;5028363;28;20091;-61
2023/10/02 10:02:47;;;;;;;20.13;11.10;;;;;;;32.44;42.15;94600.97;5028917;28;20038;-59
2023/10/02 10:10:50;;;;;;;20.17;10.68;;;;;;;35.00;38.51;94586.03;5014795;28;21703;-61
2023/10/02 10:13:37;;;;;;;20.07;11.00;;;;;;;33.79;39.12;94580.34;5048818;28;20931;-60
2023/10/02 10:16:19;;;;;;;20.63;11.30;;;;;;;35.32;36.78;94579.19;5048992;28;20090;-60
2023/10/02 10:21:57;;;;;;;21.20;11.57;;;;;;;35.93;35.21;94573.63;5028454;28;20851;-60
2023/10/02 10:24:34;;;;;;;20.67;11.57;;;;;;;35.44;35.55;94577.50;5028587;28;20465;-60
2023/10/02 10:27:02;;;;;;;22.70;12.10;;;;;;;33.73;37.38;94579.72;5028796;28;20045;-60
2023/10/02 10:29:42;;;;;;;21.92;11.88;;;;;;;34.33;37.74;94565.81;5029585;28;20042;-60
2023/10/02 10:32:19;;;;;;;22.95;11.93;;;;;;;35.49;35.72;94561.53;5028887;28;20053;-60
2023/10/02 10:35:11;;;;;;;24.52;12.95;;;;;;;37.10;32.89;94563.63;5023602;28;20054;-60
2023/10/02 10:37:46;;;;;;;22.25;13.35;;;;;;;37.95;31.14;94553.31;5019257;28;20921;-60
2023/10/02 10:40:47;;;;;;;25.43;13.70;;;;;;;37.33;31.23;94555.00;5028744;28;20052;-60
2023/10/02 10:43:14;;;;;;;25.17;13.48;;;;;;;36.63;32.47;94557.28;5028716;28;20050;-60
2023/10/02 10:45:41;;;;;;;23.13;12.77;;;;;;;37.26;31.11;94558.63;5029293;28;20045;-60
2023/10/02 10:48:23;;;;;;;21.88;12.88;;;;;;;37.17;32.86;94551.44;5028487;28;20067;-61
2023/10/02 10:51:06;;;;;;;26.00;13.27;;;;;;;37.65;31.26;94548.53;5029290;28;20052;-61
2023/10/02 10:53:33;;;;;;;24.60;13.80;;;;;;;37.12;31.06;94546.66;5028164;28;20734;-61
2023/10/02 10:56:16;;;;;;;26.05;14.20;;;;;;;37.43;31.26;94541.56;5028698;28;20041;-61
2023/10/02 10:58:44;;;;;;;24.45;13.90;;;;;;;36.76;31.69;94547.72;5029299;28;20042;-61
2023/10/02 11:01:20;;;;;;;25.67;13.90;;;;;;;36.82;31.50;94550.38;5028600;28;20534;-61
2023/10/02 11:03:58;;;;;;;25.30;13.25;;;;;;;36.01;33.50;94542.22;5028974;28;20076;-61
2023/10/02 11:06:26;;;;;;;26.73;14.17;;;;;;;37.90;30.92;94542.81;5028224;28;20410;-61
2023/10/02 11:09:11;;;;;;;26.50;14.60;;;;;;;36.29;31.59;94547.00;5028273;28;20506;-61
2023/10/02 11:11:49;;;;;;;25.80;14.27;;;;;;;35.27;33.62;94538.06;5029247;28;20045;-61
2023/10/02 11:14:22;;;;;;;26.30;14.05;;;;;;;35.08;33.96;94540.44;5028489;28;20052;-61
2023/10/02 11:17:01;;;;;;;26.48;14.63;;;;;;;34.00;35.54;94534.03;5029025;28;20056;-61
2023/10/02 11:22:19;;;;;;;26.85;14.82;;;;;;;34.10;35.34;94531.44;5028387;28;20058;-61
2023/10/02 11:24:55;;;;;;;26.13;13.85;;;;;;;34.05;36.06;94524.59;5029013;28;20041;-61
2023/10/02 11:27:23;;;;;;;27.23;14.57;;;;;;;34.10;35.63;94529.34;5027886;28;20200;-61
2023/10/02 11:30:01;;;;;;;28.17;14.30;;;;;;;32.60;37.33;94525.28;5029172;28;20098;-61
2023/10/02 11:32:59;;;;;;;27.13;13.87;;;;;;;32.17;40.13;94522.72;5028098;28;20800;-60
2023/10/02 11:35:29;;;;;;;28.65;14.02;;;;;;;30.61;42.63;94511.91;5019629;28;20539;-60
2023/10/02 11:37:57;;;;;;;27.23;13.98;;;;;;;29.96;44.81;94510.81;5028074;28;20413;-60
2023/10/02 11:40:25;;;;;;;28.05;13.90;;;;;;;29.35;45.98;94512.09;5043827;28;20053;-60
2023/10/02 11:42:52;;;;;;;26.52;13.07;;;;;;;28.60;51.66;94513.03;5029490;28;20517;-61
2023/10/02 11:45:19;;;;;;;27.30;12.90;;;;;;;28.47;52.80;94505.06;5032607;28;20048;-61
2023/10/02 11:47:46;;;;;;;27.15;13.13;;;;;;;28.08;54.76;94503.94;5031201;28;20056;-61
2023/10/02 11:50:16;;;;;;;28.58;13.43;;;;;;;27.65;56.59;94501.44;5032248;28;20037;-61
2023/10/02 11:52:44;;;;;;;27.30;12.73;;;;;;;27.43;61.13;94507.09;5032493;28;20401;-61
2023/10/02 11:55:11;;;;;;;30.48;13.32;;;;;;;27.17;64.07;94502.44;5031774;28;20053;-61
2023/10/02 11:57:37;;;;;;;28.80;12.80;;;;;;;26.82;64.75;94502.88;5032125;28;20059;-61
2023/10/02 12:00:08;;;;;;;27.80;13.18;;;;;;;26.93;66.81;94491.66;5031472;28;20052;-60
2023/10/02 12:02:35;;;;;;;30.08;12.75;;;;;;;27.12;67.79;94493.97;5032161;28;20106;-61
2023/10/02 12:05:02;;;;;;;27.85;13.18;;;;;;;26.62;67.55;94484.94;5031255;28;20049;-59
2023/10/02 12:07:29;;;;;;;27.17;12.70;;;;;;;26.77;70.35;94493.16;5032230;28;20099;-59
2023/10/02 12:09:57;;;;;;;25.20;11.97;;;;;;;26.60;69.84;94487.50;5031578;28;20067;-59
2023/10/02 12:12:25;;;;;;;28.85;12.88;;;;;;;26.41;71.21;94484.31;5030440;28;20050;-59
2023/10/02 12:14:52;;;;;;;30.38;12.88;;;;;;;26.68;72.35;94476.47;5031782;28;20053;-58
2023/10/02 12:17:18;;;;;;;28.30;12.70;;;;;;;26.52;72.95;94475.13;5031938;28;20060;-59
2023/10/02 12:19:46;;;;;;;28.73;12.40;;;;;;;26.55;73.51;94473.38;5032042;28;20049;-59
2023/10/02 12:22:13;;;;;;;30.30;12.87;;;;;;;26.40;75.15;94467.94;5031547;28;20047;-61
2023/10/02 12:24:40;;;;;;;27.98;12.55;;;;;;;26.27;74.88;94474.81;5031394;28;20049;-61
2023/10/02 12:27:10;;;;;;;27.67;12.60;;;;;;;26.28;74.34;94461.53;5031121;28;20053;-61
2023/10/02 12:29:38;;;;;;;27.33;12.18;;;;;;;26.39;78.13;94458.72;5031592;28;20051;-61
2023/10/02 12:32:05;;;;;;;27.02;12.43;;;;;;;26.41;75.99;94463.84;5031246;28;20045;-59
2023/10/02 12:34:33;;;;;;;29.13;12.73;;;;;;;26.40;76.37;94459.50;5029727;28;20049;-59
2023/10/02 12:37:00;;;;;;;28.08;12.73;;;;;;;25.88;76.14;94452.09;5030989;28;20047;-61
2023/10/02 12:39:28;;;;;;;27.40;12.45;;;;;;;25.78;78.93;94450.78;5030278;28;20037;-59
2023/10/02 12:41:56;;;;;;;29.30;13.13;;;;;;;25.61;79.57;94447.84;5031311;28;20067;-59
2023/10/02 12:44:22;;;;;;;29.88;13.05;;;;;;;25.79;79.30;94453.06;5031753;28;20045;-59
2023/10/02 12:46:52;;;;;;;29.53;13.03;;;;;;;25.82;78.40;94442.88;5031609;28;20049;-59
2023/10/02 12:49:20;;;;;;;29.23;12.82;;;;;;;25.67;76.72;94440.22;5050233;28;21544;-62
2023/10/02 12:51:50;;;;;;;27.92;12.57;;;;;;;25.83;77.54;94439.53;5050983;28;20387;-61
2023/10/02 12:54:19;;;;;;;28.83;12.63;;;;;;;25.68;79.50;94439.72;5030020;28;20838;-60